Time;durP1;ratioP1;P1;durP2;ratioP2;P2;SDS_P1;SDS_P2;PMS_P1;PMS_P2;Temp;Humidity;BMP_temperature;BMP_pressure;BME280_temperature;BME280_humidity;BME280_pressure;Samples;Min_cycle;Max_cycle;Signal;HPM_P1;HPM_P2
2021/07/28 00:00:46;;;;;;;12.43;9.70;;;16.50;91.80;;;;;;5052666;28;20025;-48
2021/07/28 00:03:12;;;;;;;14.98;9.80;;;16.60;91.80;;;;;;5052982;28;20378;-48
2021/07/28 00:05:37;;;;;;;14.27;9.88;;;16.60;91.60;;;;;;5052707;28;20052;-48
2021/07/28 00:08:03;;;;;;;19.08;9.88;;;16.60;91.70;;;;;;5052591;28;20385;-49
2021/07/28 00:10:29;;;;;;;16.90;10.32;;;16.50;91.50;;;;;;5052555;28;20033;-47
2021/07/28 00:12:55;;;;;;;17.98;10.35;;;16.60;91.30;;;;;;5051078;28;20385;-51
2021/07/28 00:15:20;;;;;;;20.40;10.35;;;16.70;91.30;;;;;;5052825;28;20017;-47
2021/07/28 00:17:55;;;;;;;13.88;9.60;;;16.50;91.00;;;;;;5052437;28;20021;-52
2021/07/28 00:23:16;;;;;;;12.15;8.48;;;16.50;91.30;;;;;;5056548;28;20021;-50
2021/07/28 00:25:43;;;;;;;14.52;9.25;;;16.50;91.30;;;;;;5057185;28;20089;-48
2021/07/28 00:28:09;;;;;;;13.65;8.88;;;16.50;90.80;;;;;;5057001;28;20028;-50
2021/07/28 00:30:35;;;;;;;12.90;8.80;;;16.60;91.10;;;;;;5056493;28;20095;-49
2021/07/28 00:33:01;;;;;;;12.60;8.75;;;16.70;90.60;;;;;;5056560;28;20459;-49
2021/07/28 00:35:27;;;;;;;12.35;8.73;;;16.70;90.50;;;;;;5057045;28;20021;-48
2021/07/28 00:37:54;;;;;;;15.70;8.27;;;16.60;90.70;;;;;;5056398;28;20461;-49
2021/07/28 00:40:20;;;;;;;12.02;8.63;;;16.80;90.70;;;;;;5056622;28;20054;-50
2021/07/28 00:42:45;;;;;;;10.07;7.72;;;16.70;90.40;;;;;;5056170;28;20560;-47
2021/07/28 00:45:11;;;;;;;13.45;9.25;;;16.80;90.60;;;;;;5056419;28;20032;-51
2021/07/28 00:47:37;;;;;;;11.13;8.23;;;16.80;90.40;;;;;;5056206;28;20048;-48
2021/07/28 00:50:04;;;;;;;14.32;7.85;;;16.80;90.10;;;;;;5056226;28;20021;-48
2021/07/28 00:52:32;;;;;;;13.93;7.30;;;16.80;90.40;;;;;;5056168;28;20397;-47
2021/07/28 00:54:58;;;;;;;11.50;8.73;;;16.80;90.00;;;;;;5056522;28;20519;-49
2021/07/28 00:57:24;;;;;;;10.55;8.43;;;16.80;90.20;;;;;;5056026;28;20029;-50
2021/07/28 00:59:49;;;;;;;16.45;9.07;;;16.80;90.10;;;;;;5056130;28;20017;-49
2021/07/28 01:02:15;;;;;;;14.48;8.38;;;16.80;90.00;;;;;;5055872;28;20131;-49
2021/07/28 01:04:40;;;;;;;10.43;8.10;;;16.80;90.30;;;;;;5055856;28;20428;-46
2021/07/28 01:07:07;;;;;;;14.55;8.73;;;16.60;90.50;;;;;;5055798;28;20040;-53
2021/07/28 01:09:33;;;;;;;11.48;7.28;;;16.70;90.30;;;;;;5055416;28;20100;-50
2021/07/28 01:11:59;;;;;;;9.82;7.50;;;16.70;90.20;;;;;;5055287;28;20117;-48
2021/07/28 01:14:26;;;;;;;11.73;7.65;;;16.60;90.80;;;;;;5055699;28;20017;-47
2021/07/28 01:16:54;;;;;;;12.60;8.45;;;16.70;90.30;;;;;;5055251;28;20052;-48
2021/07/28 01:19:30;;;;;;;11.73;8.15;;;16.70;90.50;;;;;;5055530;28;20017;-50
2021/07/28 01:22:00;;;;;;;12.63;8.02;;;16.70;90.30;;;;;;5055437;28;20025;-47
2021/07/28 01:24:26;;;;;;;13.10;7.68;;;16.70;90.30;;;;;;5055389;28;20040;-49
2021/07/28 01:26:53;;;;;;;10.70;7.00;;;16.80;90.00;;;;;;5055599;28;20028;-46
2021/07/28 01:29:20;;;;;;;11.75;7.90;;;16.70;90.30;;;;;;5055385;28;20132;-49
2021/07/28 01:31:47;;;;;;;10.48;8.60;;;16.70;90.10;;;;;;5054839;28;20021;-48
2021/07/28 01:34:13;;;;;;;19.33;7.93;;;16.70;90.00;;;;;;5055872;28;20025;-47
2021/07/28 01:36:40;;;;;;;10.10;7.63;;;16.70;89.90;;;;;;5055972;28;20021;-49
2021/07/28 01:39:05;;;;;;;11.00;7.50;;;16.80;89.90;;;;;;5055650;28;20469;-48
2021/07/28 01:41:32;;;;;;;15.63;8.55;;;16.80;89.90;;;;;;5054087;28;20082;-49
2021/07/28 01:43:58;;;;;;;12.55;8.23;;;16.80;89.50;;;;;;5055376;28;20528;-49
2021/07/28 01:46:23;;;;;;;10.57;7.82;;;16.80;89.20;;;;;;5055537;28;20044;-48
2021/07/28 01:48:49;;;;;;;10.85;8.30;;;16.80;89.30;;;;;;5055247;28;20100;-52
2021/07/28 01:51:14;;;;;;;14.75;8.25;;;16.90;89.40;;;;;;5055562;28;20052;-52
2021/07/28 01:53:43;;;;;;;12.52;9.07;;;16.90;89.50;;;;;;5055394;28;20040;-51
2021/07/28 01:56:09;;;;;;;11.90;8.95;;;16.90;89.50;;;;;;5055341;28;20461;-48
2021/07/28 01:58:38;;;;;;;19.15;8.93;;;16.80;89.80;;;;;;5055070;28;20017;-49
2021/07/28 02:01:04;;;;;;;12.65;8.63;;;16.80;89.60;;;;;;5054848;28;20032;-49
2021/07/28 02:03:29;;;;;;;14.35;8.25;;;16.90;89.50;;;;;;5055099;28;20103;-52
2021/07/28 02:05:55;;;;;;;12.10;7.97;;;16.80;89.90;;;;;;5055001;28;20079;-49
2021/07/28 02:08:20;;;;;;;13.70;8.18;;;16.80;89.60;;;;;;5055012;28;20025;-52
2021/07/28 02:10:48;;;;;;;14.25;9.15;;;17.00;89.60;;;;;;5054870;28;20117;-50
2021/07/28 02:13:15;;;;;;;15.27;9.07;;;17.10;88.90;;;;;;5054705;28;20029;-52
2021/07/28 02:15:41;;;;;;;13.90;9.25;;;17.00;88.90;;;;;;5054674;28;20040;-51
2021/07/28 02:18:06;;;;;;;12.52;9.43;;;17.00;89.30;;;;;;5055153;28;20102;-49
2021/07/28 02:20:33;;;;;;;11.55;8.45;;;17.10;88.90;;;;;;5054536;28;20175;-49
2021/07/28 02:23:00;;;;;;;14.95;9.57;;;17.00;89.00;;;;;;5054540;28;20060;-49
2021/07/28 02:25:26;;;;;;;17.02;9.73;;;17.00;89.10;;;;;;5054656;28;20021;-50
2021/07/28 02:27:52;;;;;;;12.82;9.20;;;16.90;88.90;;;;;;5054558;28;20075;-48
2021/07/28 02:30:18;;;;;;;11.95;8.52;;;16.80;89.50;;;;;;5054458;28;20049;-52
2021/07/28 02:32:47;;;;;;;14.68;9.25;;;16.80;89.60;;;;;;5054251;28;20033;-51
2021/07/28 02:35:13;;;;;;;14.57;8.65;;;16.80;89.70;;;;;;5054181;28;20104;-51
2021/07/28 02:37:42;;;;;;;12.38;8.05;;;16.80;89.50;;;;;;5054428;28;20047;-49
2021/07/28 02:40:15;;;;;;;12.05;8.05;;;16.80;89.70;;;;;;5054257;28;20017;-50
2021/07/28 02:42:41;;;;;;;11.88;8.18;;;16.80;89.50;;;;;;5054172;28;20075;-49
2021/07/28 02:45:07;;;;;;;16.73;8.23;;;16.80;89.80;;;;;;5054062;28;20392;-48
2021/07/28 02:47:32;;;;;;;13.02;8.15;;;16.80;89.50;;;;;;5054080;28;20029;-49
2021/07/28 02:49:58;;;;;;;10.48;8.10;;;16.80;89.10;;;;;;5054477;28;20118;-49
2021/07/28 02:52:24;;;;;;;11.50;8.68;;;16.80;89.40;;;;;;5054770;28;20399;-53
2021/07/28 02:54:49;;;;;;;14.60;8.32;;;16.90;88.90;;;;;;5053994;28;20021;-50
2021/07/28 02:57:15;;;;;;;12.77;8.25;;;16.80;89.10;;;;;;5053966;28;20441;-50
2021/07/28 02:59:40;;;;;;;16.58;9.10;;;16.80;89.40;;;;;;5052433;28;20162;-49
2021/07/28 03:02:06;;;;;;;12.10;8.98;;;16.90;89.00;;;;;;5053963;28;20595;-46
2021/07/28 03:04:32;;;;;;;16.08;9.70;;;16.90;88.50;;;;;;5053962;28;20036;-47
2021/07/28 03:06:58;;;;;;;14.30;10.05;;;17.00;88.50;;;;;;5053561;28;20106;-51
2021/07/28 03:09:23;;;;;;;11.70;9.15;;;16.90;89.10;;;;;;5053570;28;20021;-50
2021/07/28 03:11:49;;;;;;;12.80;8.10;;;16.80;89.10;;;;;;5053705;28;20095;-51
2021/07/28 03:14:14;;;;;;;15.18;9.05;;;16.80;89.30;;;;;;5053897;28;20029;-52
2021/07/28 03:16:40;;;;;;;14.18;9.63;;;16.70;89.50;;;;;;5053819;28;20107;-48
2021/07/28 03:19:06;;;;;;;18.98;9.27;;;16.60;90.00;;;;;;5053718;28;20549;-49
2021/07/28 03:21:33;;;;;;;14.52;9.98;;;16.80;89.70;;;;;;5053506;28;20021;-48
2021/07/28 03:23:58;;;;;;;14.18;9.23;;;16.80;89.80;;;;;;5053548;28;20119;-49
2021/07/28 03:26:24;;;;;;;15.32;9.38;;;16.80;89.50;;;;;;5053613;28;20021;-48
2021/07/28 03:28:50;;;;;;;13.77;9.32;;;16.80;89.50;;;;;;5053218;28;20021;-47
2021/07/28 03:31:15;;;;;;;15.45;9.98;;;16.90;89.20;;;;;;5053085;28;20049;-52
2021/07/28 03:33:41;;;;;;;12.00;9.00;;;16.90;88.70;;;;;;5053162;28;20021;-47
2021/07/28 03:36:07;;;;;;;15.60;9.40;;;16.80;89.30;;;;;;5053562;28;20021;-48
2021/07/28 03:38:33;;;;;;;15.38;8.73;;;17.00;89.00;;;;;;5053478;28;20017;-49
2021/07/28 03:40:58;;;;;;;21.17;9.80;;;16.80;89.10;;;;;;5053209;28;20043;-48
2021/07/28 03:43:24;;;;;;;18.90;10.27;;;16.90;89.10;;;;;;5053470;28;20100;-47
2021/07/28 03:45:50;;;;;;;14.13;9.98;;;17.00;88.50;;;;;;5053183;28;20029;-48
2021/07/28 03:48:15;;;;;;;20.52;9.98;;;17.00;88.60;;;;;;5053814;28;20028;-52
2021/07/28 03:50:41;;;;;;;16.23;11.38;;;16.80;88.90;;;;;;5051730;28;20060;-48
2021/07/28 03:53:07;;;;;;;18.38;11.13;;;16.80;89.30;;;;;;5052977;28;20029;-48
2021/07/28 03:55:32;;;;;;;17.77;9.40;;;16.80;88.70;;;;;;5052654;28;20021;-53
2021/07/28 03:57:58;;;;;;;10.55;8.82;;;16.80;88.70;;;;;;5053096;28;20025;-48
2021/07/28 04:00:24;;;;;;;14.23;10.05;;;16.70;89.20;;;;;;5053239;28;20044;-49
2021/07/28 04:02:49;;;;;;;16.10;9.75;;;16.60;89.60;;;;;;5053422;28;20029;-50
2021/07/28 04:05:16;;;;;;;12.80;10.38;;;16.70;89.30;;;;;;5053578;28;20017;-48
2021/07/28 04:07:42;;;;;;;16.02;10.48;;;16.80;88.90;;;;;;5053066;28;20036;-47
2021/07/28 04:10:09;;;;;;;15.70;11.32;;;16.80;88.80;;;;;;5053331;28;20048;-48
2021/07/28 04:12:34;;;;;;;18.17;11.88;;;16.80;89.10;;;;;;5052970;28;20041;-47
2021/07/28 04:15:00;;;;;;;19.48;10.73;;;16.80;89.00;;;;;;5053047;28;20108;-49
2021/07/28 04:17:26;;;;;;;16.88;11.43;;;16.80;89.20;;;;;;5053661;28;20021;-49
2021/07/28 04:19:52;;;;;;;16.88;10.88;;;16.80;89.20;;;;;;5053389;28;20112;-49
2021/07/28 04:22:19;;;;;;;17.30;10.75;;;16.80;89.40;;;;;;5053185;28;20477;-52
2021/07/28 04:24:45;;;;;;;15.77;10.80;;;16.70;89.20;;;;;;5053049;28;20090;-48
2021/07/28 04:27:11;;;;;;;15.45;11.10;;;16.80;89.30;;;;;;5052946;28;20554;-48
2021/07/28 04:29:37;;;;;;;16.38;10.20;;;16.70;89.20;;;;;;5052552;28;21270;-48
2021/07/28 04:32:03;;;;;;;14.98;11.38;;;16.70;89.30;;;;;;5052897;28;20366;-47
2021/07/28 04:34:29;;;;;;;16.27;11.10;;;16.80;89.10;;;;;;5053402;28;20026;-48
2021/07/28 04:36:54;;;;;;;17.15;10.88;;;16.80;89.40;;;;;;5052701;28;20027;-48
2021/07/28 04:39:20;;;;;;;15.00;10.88;;;17.00;88.50;;;;;;5052942;28;20017;-50
2021/07/28 04:41:45;;;;;;;19.08;10.85;;;17.00;88.20;;;;;;5052908;28;20053;-48
2021/07/28 04:44:11;;;;;;;14.30;9.85;;;17.00;88.50;;;;;;5052721;28;20039;-50
2021/07/28 04:46:37;;;;;;;14.07;10.25;;;17.00;88.60;;;;;;5052924;28;20025;-52
2021/07/28 04:49:02;;;;;;;14.32;10.82;;;17.10;88.40;;;;;;5052865;28;20024;-50
2021/07/28 04:51:28;;;;;;;16.33;10.32;;;17.20;88.10;;;;;;5052623;28;20025;-49
2021/07/28 04:53:54;;;;;;;13.23;9.88;;;17.10;88.40;;;;;;5051097;28;20107;-49
2021/07/28 04:56:19;;;;;;;18.95;10.68;;;17.20;87.90;;;;;;5052944;28;20104;-48
2021/07/28 04:58:45;;;;;;;16.63;11.98;;;17.30;87.70;;;;;;5052625;28;20017;-47
2021/07/28 05:01:11;;;;;;;17.85;10.60;;;17.20;88.50;;;;;;5052752;28;20032;-48
2021/07/28 05:03:37;;;;;;;15.02;9.38;;;17.30;88.60;;;;;;5052295;28;20029;-51
2021/07/28 05:06:03;;;;;;;13.60;9.98;;;17.10;88.20;;;;;;5052380;28;20389;-47
2021/07/28 05:08:28;;;;;;;20.00;10.40;;;17.20;88.40;;;;;;5054859;28;20029;-49
2021/07/28 05:10:54;;;;;;;15.07;10.60;;;17.30;87.70;;;;;;5054906;28;20416;-51
2021/07/28 05:13:19;;;;;;;20.25;12.07;;;17.20;88.30;;;;;;5055919;28;20407;-48
2021/07/28 05:15:49;;;;;;;21.10;10.85;;;17.30;87.80;;;;;;5056039;28;20027;-48
2021/07/28 05:18:15;;;;;;;13.80;9.73;;;17.30;87.60;;;;;;5055610;28;20024;-49
2021/07/28 05:20:40;;;;;;;14.82;9.18;;;17.30;88.20;;;;;;5055272;28;20021;-48
2021/07/28 05:23:06;;;;;;;16.00;10.52;;;17.30;87.90;;;;;;5055736;28;20079;-48
2021/07/28 05:25:32;;;;;;;19.13;11.80;;;17.30;88.30;;;;;;5055710;28;20035;-48
2021/07/28 05:27:57;;;;;;;14.25;10.73;;;17.20;87.70;;;;;;5056555;28;20330;-49
2021/07/28 05:30:23;;;;;;;14.93;9.75;;;17.30;88.20;;;;;;5055905;28;20045;-47
2021/07/28 05:32:49;;;;;;;14.32;10.48;;;17.30;87.90;;;;;;5055310;28;20025;-48
2021/07/28 05:35:14;;;;;;;14.18;10.07;;;17.20;88.10;;;;;;5055342;28;20076;-49
2021/07/28 05:37:40;;;;;;;17.13;10.30;;;17.30;88.40;;;;;;5055267;28;20469;-49
2021/07/28 05:40:06;;;;;;;16.75;10.02;;;17.30;88.30;;;;;;5055622;28;20139;-56
2021/07/28 05:42:31;;;;;;;14.45;9.77;;;17.50;87.30;;;;;;5054400;28;20036;-51
2021/07/28 05:44:57;;;;;;;16.80;11.02;;;17.50;87.40;;;;;;5055465;28;20036;-51
2021/07/28 05:47:23;;;;;;;18.60;10.93;;;17.80;86.50;;;;;;5054143;28;20025;-49
2021/07/28 05:49:48;;;;;;;17.58;10.35;;;17.80;86.10;;;;;;5055016;28;20055;-52
2021/07/28 05:52:14;;;;;;;13.32;10.00;;;18.00;85.70;;;;;;5055290;28;20028;-50
2021/07/28 05:54:40;;;;;;;14.85;9.05;;;18.00;85.50;;;;;;5055745;28;20017;-49
2021/07/28 05:57:05;;;;;;;14.32;10.07;;;17.80;86.00;;;;;;5054943;28;20088;-50
2021/07/28 05:59:31;;;;;;;13.18;10.55;;;17.90;85.60;;;;;;5054909;28;20017;-48
2021/07/28 06:01:57;;;;;;;10.18;8.38;;;18.10;85.40;;;;;;5055328;28;20033;-47
2021/07/28 06:04:23;;;;;;;15.40;9.48;;;18.10;85.20;;;;;;5055007;28;20027;-47
2021/07/28 06:06:48;;;;;;;23.10;11.70;;;18.30;85.10;;;;;;5054887;28;20033;-48
2021/07/28 06:09:14;;;;;;;15.60;9.18;;;18.50;84.00;;;;;;5055101;28;20031;-49
2021/07/28 06:11:40;;;;;;;10.43;8.68;;;18.80;83.70;;;;;;5054630;28;20056;-49
2021/07/28 06:14:06;;;;;;;15.88;9.27;;;18.80;83.00;;;;;;5054895;28;20108;-52
2021/07/28 06:16:32;;;;;;;12.73;8.57;;;18.90;82.50;;;;;;5054867;28;20021;-50
2021/07/28 06:18:58;;;;;;;11.43;7.18;;;19.20;81.30;;;;;;5053924;28;20021;-48
2021/07/28 06:21:24;;;;;;;11.48;9.13;;;19.00;81.30;;;;;;5053072;28;20028;-50
2021/07/28 06:23:49;;;;;;;11.77;7.88;;;19.10;80.70;;;;;;5054283;28;20100;-50
2021/07/28 06:26:16;;;;;;;12.98;8.00;;;19.20;81.30;;;;;;5054357;28;20480;-52
2021/07/28 06:28:42;;;;;;;9.43;7.18;;;19.30;80.70;;;;;;5054158;28;20036;-50
2021/07/28 06:31:07;;;;;;;14.20;6.95;;;19.20;81.00;;;;;;5054031;28;20101;-49
2021/07/28 06:33:33;;;;;;;11.30;7.15;;;19.10;81.00;;;;;;5054129;28;20079;-50
2021/07/28 06:35:59;;;;;;;8.85;6.82;;;19.00;81.20;;;;;;5054329;28;20487;-48
2021/07/28 06:38:24;;;;;;;14.18;6.78;;;18.90;81.10;;;;;;5054042;28;20389;-49
2021/07/28 06:40:50;;;;;;;10.35;6.88;;;19.00;81.00;;;;;;5054166;28;20024;-49
2021/07/28 06:43:16;;;;;;;14.05;8.05;;;19.00;81.50;;;;;;5053955;28;20036;-50
2021/07/28 06:45:42;;;;;;;14.52;7.97;;;18.90;82.00;;;;;;5053450;28;20032;-51
2021/07/28 06:48:08;;;;;;;13.93;7.15;;;18.80;81.70;;;;;;5053836;28;20312;-48
2021/07/28 06:50:33;;;;;;;12.55;8.40;;;18.90;81.80;;;;;;5053974;28;20032;-52
2021/07/28 06:52:59;;;;;;;15.98;7.57;;;18.90;82.40;;;;;;5053426;28;20017;-49
2021/07/28 06:55:25;;;;;;;9.95;6.82;;;19.10;81.70;;;;;;5053537;28;20029;-48
2021/07/28 06:57:51;;;;;;;9.30;6.57;;;19.10;81.10;;;;;;5053691;28;20013;-48
2021/07/28 07:00:17;;;;;;;11.18;7.20;;;19.10;81.20;;;;;;5052189;28;20523;-51
2021/07/28 07:02:42;;;;;;;11.02;7.70;;;18.80;82.10;;;;;;5054261;28;20025;-48
2021/07/28 07:05:10;;;;;;;12.30;7.32;;;18.90;81.40;;;;;;5053650;28;20115;-48
2021/07/28 07:07:37;;;;;;;12.88;7.07;;;19.00;82.50;;;;;;5053259;28;20508;-49
2021/07/28 07:10:08;;;;;;;16.20;7.22;;;19.00;81.40;;;;;;5053047;28;20481;-49
2021/07/28 07:12:36;;;;;;;13.63;8.38;;;19.20;81.10;;;;;;5054008;28;20028;-53
2021/07/28 07:15:02;;;;;;;11.07;6.63;;;19.30;80.40;;;;;;5035506;28;20032;-51
2021/07/28 07:17:29;;;;;;;11.25;6.43;;;19.40;79.40;;;;;;5053594;28;20021;-50
2021/07/28 07:19:55;;;;;;;10.63;7.30;;;19.60;79.20;;;;;;5052594;28;20040;-51
2021/07/28 07:22:20;;;;;;;9.52;6.55;;;19.80;77.60;;;;;;5052412;28;20446;-49
2021/07/28 07:24:46;;;;;;;10.70;6.70;;;20.30;76.40;;;;;;5053304;28;20037;-50
2021/07/28 07:27:12;;;;;;;12.00;7.70;;;20.10;77.40;;;;;;5052930;28;20056;-48
2021/07/28 07:29:37;;;;;;;12.43;6.63;;;19.80;80.10;;;;;;5052097;28;20068;-50
2021/07/28 07:32:03;;;;;;;17.13;7.07;;;19.30;82.10;;;;;;5052468;28;20031;-49
2021/07/28 07:34:29;;;;;;;12.13;8.38;;;18.50;84.60;;;;;;5052816;28;20021;-47
2021/07/28 07:36:55;;;;;;;11.80;7.43;;;18.30;86.40;;;;;;5052890;28;20498;-50
2021/07/28 07:39:22;;;;;;;12.73;8.15;;;18.20;87.60;;;;;;5051038;28;20025;-48
2021/07/28 07:41:48;;;;;;;14.10;8.70;;;18.00;87.80;;;;;;5051482;28;20442;-51
2021/07/28 07:44:14;;;;;;;12.18;8.20;;;17.90;87.90;;;;;;5053173;28;20049;-53
2021/07/28 07:46:39;;;;;;;12.75;9.30;;;17.90;88.00;;;;;;5051429;28;20070;-48
2021/07/28 07:49:05;;;;;;;11.23;9.23;;;17.80;89.00;;;;;;5053910;28;20462;-49
2021/07/28 07:51:31;;;;;;;13.05;9.38;;;17.90;88.90;;;;;;5052918;28;20424;-49
2021/07/28 07:53:58;;;;;;;10.63;9.07;;;17.80;89.30;;;;;;5051621;28;20029;-51
2021/07/28 07:56:23;;;;;;;19.30;10.75;;;17.80;89.90;;;;;;5052459;28;20043;-53
2021/07/28 07:58:49;;;;;;;11.73;8.18;;;17.70;90.10;;;;;;5052678;28;20426;-51
2021/07/28 08:01:15;;;;;;;12.77;9.13;;;17.90;89.20;;;;;;5050724;28;20067;-53
2021/07/28 08:03:42;;;;;;;13.52;9.65;;;18.20;88.80;;;;;;5051698;28;20393;-49
2021/07/28 08:06:09;;;;;;;12.02;8.57;;;18.40;88.50;;;;;;5051385;28;20063;-54
2021/07/28 08:08:36;;;;;;;13.60;8.75;;;18.30;88.40;;;;;;5052989;28;20048;-49
2021/07/28 08:11:12;;;;;;;13.55;9.38;;;18.30;88.00;;;;;;5052943;28;20029;-53
2021/07/28 08:13:39;;;;;;;14.30;8.50;;;18.60;87.10;;;;;;5052740;28;20025;-52
2021/07/28 08:16:19;;;;;;;12.85;7.72;;;18.90;86.50;;;;;;5052698;28;20025;-48
2021/07/28 08:18:45;;;;;;;11.02;7.95;;;18.80;86.80;;;;;;5052908;28;20024;-50
2021/07/28 08:21:12;;;;;;;12.38;8.38;;;18.80;86.60;;;;;;5052451;28;20028;-49
2021/07/28 08:23:39;;;;;;;13.52;8.50;;;18.80;86.20;;;;;;5052471;28;20036;-48
2021/07/28 08:26:04;;;;;;;14.45;8.35;;;18.30;89.00;;;;;;5052535;28;20033;-48
2021/07/28 08:28:30;;;;;;;9.48;6.57;;;18.00;89.80;;;;;;5054072;28;20049;-48
2021/07/28 08:30:56;;;;;;;11.60;6.88;;;17.40;89.00;;;;;;5053028;28;20125;-51
2021/07/28 08:33:24;;;;;;;12.20;7.28;;;17.20;90.00;;;;;;5051023;28;20124;-48
2021/07/28 08:35:49;;;;;;;11.23;6.95;;;17.00;90.80;;;;;;5051982;28;20067;-48
2021/07/28 08:38:17;;;;;;;16.17;6.40;;;16.70;91.50;;;;;;5052427;28;20025;-51
2021/07/28 08:40:46;;;;;;;14.68;7.18;;;16.60;91.50;;;;;;5051461;28;20053;-49
2021/07/28 08:43:12;;;;;;;9.80;6.95;;;16.60;91.80;;;;;;5056378;28;20083;-52
2021/07/28 08:45:38;;;;;;;10.38;7.80;;;16.70;91.70;;;;;;5055167;28;20029;-52
2021/07/28 08:48:04;;;;;;;11.48;6.38;;;16.80;91.60;;;;;;5055882;28;20373;-52
2021/07/28 08:50:30;;;;;;;7.10;5.35;;;17.10;91.20;;;;;;5056374;28;20431;-50
2021/07/28 08:52:58;;;;;;;12.13;5.85;;;17.50;89.90;;;;;;5056528;28;20025;-51
2021/07/28 08:55:24;;;;;;;9.30;5.50;;;17.90;88.60;;;;;;5055856;28;20025;-48
2021/07/28 08:57:50;;;;;;;6.47;5.68;;;18.20;88.30;;;;;;5057349;28;20488;-51
2021/07/28 09:00:15;;;;;;;9.10;5.78;;;18.40;87.40;;;;;;5055631;28;20029;-50
2021/07/28 09:02:41;;;;;;;7.60;4.93;;;18.90;86.50;;;;;;5056514;28;20037;-52
2021/07/28 09:05:07;;;;;;;8.18;4.97;;;19.40;86.80;;;;;;5056541;28;20033;-47
2021/07/28 09:07:39;;;;;;;9.48;5.68;;;19.80;84.20;;;;;;5055894;28;20041;-51
2021/07/28 09:10:05;;;;;;;9.13;5.70;;;19.60;85.60;;;;;;5056102;28;20531;-51
2021/07/28 09:12:33;;;;;;;6.97;5.00;;;19.20;86.80;;;;;;5055640;28;20025;-50
2021/07/28 09:15:03;;;;;;;6.47;5.32;;;19.70;85.20;;;;;;5056044;28;20100;-49
2021/07/28 09:17:31;;;;;;;9.23;6.28;;;19.80;84.00;;;;;;5055622;28;20083;-53
2021/07/28 09:19:58;;;;;;;8.70;4.97;;;20.30;83.20;;;;;;5055547;28;20031;-51
2021/07/28 09:22:30;;;;;;;7.00;5.28;;;21.30;78.30;;;;;;5054155;28;20108;-52
2021/07/28 09:25:12;;;;;;;9.70;5.13;;;21.40;77.90;;;;;;5054552;28;20033;-52
2021/07/28 09:27:42;;;;;;;6.25;5.65;;;21.80;73.40;;;;;;5055887;28;20033;-51
2021/07/28 09:30:09;;;;;;;14.43;5.30;;;22.30;72.90;;;;;;5055388;28;20052;-54
2021/07/28 09:32:54;;;;;;;11.13;5.00;;;21.80;72.90;;;;;;5055301;28;20036;-52
2021/07/28 09:36:08;;;;;;;9.73;5.68;;;22.00;72.80;;;;;;5055254;28;20033;-52
2021/07/28 09:38:47;;;;;;;9.80;5.50;;;21.10;75.60;;;;;;5054924;28;20170;-51
2021/07/28 09:41:24;;;;;;;8.20;5.43;;;20.80;75.30;;;;;;5055854;28;20056;-51
2021/07/28 09:43:58;;;;;;;7.45;5.35;;;20.80;73.00;;;;;;5056548;28;20104;-50
2021/07/28 09:46:26;;;;;;;8.52;5.63;;;21.00;74.20;;;;;;5057738;28;20027;-38
2021/07/28 09:48:53;;;;;;;7.47;5.88;;;20.60;75.50;;;;;;5054827;28;20017;-39
2021/07/28 09:51:23;;;;;;;8.23;5.47;;;21.30;73.60;;;;;;5053092;28;20033;-39
2021/07/28 09:53:57;;;;;;;12.10;6.80;;;21.40;72.20;;;;;;5055343;28;20368;-37
2021/07/28 09:56:43;;;;;;;10.18;5.78;;;21.80;73.00;;;;;;5055625;28;20033;-37
2021/07/28 09:59:08;;;;;;;6.63;5.97;;;21.50;71.80;;;;;;5055288;28;20031;-37
2021/07/28 10:01:35;;;;;;;8.65;5.53;;;21.80;69.50;;;;;;5054938;28;20017;-38
2021/07/28 10:04:04;;;;;;;8.85;5.97;;;21.60;71.10;;;;;;5054750;28;20021;-37
2021/07/28 10:06:39;;;;;;;13.30;6.65;;;21.80;69.00;;;;;;5054637;28;20025;-37
2021/07/28 10:09:16;;;;;;;14.13;6.82;;;22.30;68.20;;;;;;5054430;28;20437;-38
2021/07/28 10:11:50;;;;;;;7.25;4.97;;;21.80;70.20;;;;;;5054208;28;20025;-38
2021/07/28 10:14:20;;;;;;;8.07;4.53;;;22.00;69.70;;;;;;5054141;28;20021;-37
2021/07/28 10:16:47;;;;;;;7.32;4.03;;;22.90;64.40;;;;;;5054564;28;20021;-38
2021/07/28 10:19:14;;;;;;;8.32;4.82;;;23.00;62.90;;;;;;5053910;28;20060;-38
2021/07/28 10:21:41;;;;;;;10.38;5.20;;;23.00;64.90;;;;;;5053593;28;20042;-38
2021/07/28 10:24:12;;;;;;;8.65;5.50;;;22.60;64.20;;;;;;5053384;28;20029;-39
2021/07/28 10:26:40;;;;;;;10.75;5.35;;;22.20;66.40;;;;;;5052676;28;20021;-38
2021/07/28 10:29:08;;;;;;;6.57;4.45;;;21.90;67.10;;;;;;5054266;28;20378;-36
2021/07/28 10:31:54;;;;;;;5.32;4.22;;;22.60;65.10;;;;;;5053416;28;20397;-37
2021/07/28 10:34:31;;;;;;;6.22;4.15;;;22.00;66.90;;;;;;5053748;28;20021;-37
2021/07/28 10:37:05;;;;;;;6.18;4.70;;;21.30;68.10;;;;;;5053983;28;20539;-37
2021/07/28 10:39:35;;;;;;;8.38;5.50;;;22.00;66.50;;;;;;5054049;28;20028;-37
2021/07/28 10:42:12;;;;;;;8.20;4.97;;;21.70;68.20;;;;;;5053909;28;20021;-37
2021/07/28 10:44:56;;;;;;;6.07;5.00;;;21.30;69.60;;;;;;5053548;28;20040;-37
2021/07/28 10:47:50;;;;;;;10.77;5.22;;;21.60;68.70;;;;;;5053144;28;20392;-37
2021/07/28 10:50:29;;;;;;;5.68;4.72;;;22.20;66.30;;;;;;5053120;28;20043;-37
2021/07/28 10:52:58;;;;;;;8.82;4.97;;;23.70;61.80;;;;;;5053709;28;20021;-37
2021/07/28 10:55:38;;;;;;;9.90;5.50;;;22.90;63.70;;;;;;5052255;28;20025;-37
2021/07/28 10:58:08;;;;;;;6.47;4.40;;;22.90;63.70;;;;;;5053591;28;20112;-38
2021/07/28 11:00:40;;;;;;;10.52;4.53;;;22.80;62.40;;;;;;5053278;28;20017;-37
2021/07/28 11:03:09;;;;;;;6.03;3.22;;;23.20;60.30;;;;;;5051827;28;20075;-37
2021/07/28 11:05:37;;;;;;;6.67;3.30;;;24.50;55.20;;;;;;5052140;28;20050;-37
2021/07/28 11:08:05;;;;;;;8.40;3.25;;;24.90;54.30;;;;;;5053386;28;20400;-37
2021/07/28 11:10:34;;;;;;;7.38;3.42;;;24.60;53.80;;;;;;5053427;28;20057;-37
2021/07/28 11:13:09;;;;;;;4.90;3.45;;;24.10;55.40;;;;;;5052912;28;20033;-37
2021/07/28 11:15:35;;;;;;;7.85;3.83;;;22.60;58.40;;;;;;5053327;28;20117;-37
2021/07/28 11:18:01;;;;;;;8.32;3.28;;;22.20;60.40;;;;;;5053294;28;20572;-38
2021/07/28 11:20:27;;;;;;;4.25;3.03;;;22.30;60.90;;;;;;5053112;28;20514;-38
2021/07/28 11:22:53;;;;;;;3.78;3.00;;;22.20;60.20;;;;;;5053170;28;20109;-37
2021/07/28 11:25:18;;;;;;;8.35;3.47;;;22.00;59.80;;;;;;5053175;28;20052;-37
2021/07/28 11:28:03;;;;;;;6.68;3.65;;;22.80;57.30;;;;;;5052799;28;20143;-37
2021/07/28 11:30:29;;;;;;;5.68;3.60;;;24.00;54.90;;;;;;5050949;28;20053;-37
2021/07/28 11:32:54;;;;;;;7.53;3.85;;;24.30;53.80;;;;;;5052963;28;20031;-37
2021/07/28 11:35:21;;;;;;;6.13;3.08;;;23.40;56.20;;;;;;5052956;28;20045;-37
2021/07/28 11:37:46;;;;;;;6.28;3.17;;;23.40;56.00;;;;;;5052803;28;20086;-36
2021/07/28 11:40:12;;;;;;;7.32;4.28;;;23.50;54.20;;;;;;5052927;28;20021;-36
2021/07/28 11:42:38;;;;;;;4.65;2.28;;;23.50;54.80;;;;;;5052881;28;20025;-36
2021/07/28 11:45:04;;;;;;;4.05;2.83;;;23.60;53.10;;;;;;5051026;28;20021;-37
2021/07/28 11:47:30;;;;;;;8.60;2.63;;;24.10;52.60;;;;;;5052055;28;20025;-37
2021/07/28 11:50:01;;;;;;;7.72;4.00;;;24.70;50.90;;;;;;5052373;28;20511;-37
2021/07/28 11:52:26;;;;;;;5.15;2.65;;;24.80;52.00;;;;;;5052291;28;20029;-37
2021/07/28 11:54:52;;;;;;;5.07;2.58;;;25.20;49.90;;;;;;5053083;28;20100;-37
2021/07/28 11:57:18;;;;;;;4.45;2.55;;;24.00;50.10;;;;;;5052818;28;20048;-37
2021/07/28 11:59:43;;;;;;;5.22;2.60;;;24.30;50.30;;;;;;5052080;28;20373;-37
2021/07/28 12:02:19;;;;;;;4.57;2.30;;;23.60;51.00;;;;;;5052499;28;20530;-36
2021/07/28 12:04:47;;;;;;;2.75;2.40;;;22.90;52.10;;;;;;5052740;28;20083;-38
2021/07/28 12:07:17;;;;;;;3.13;2.38;;;22.90;52.30;;;;;;5052118;28;20039;-36
2021/07/28 12:09:56;;;;;;;9.90;2.10;;;23.40;51.00;;;;;;5052376;28;20051;-38
2021/07/28 12:12:24;;;;;;;4.30;1.92;;;23.80;50.80;;;;;;5053089;28;20079;-36
2021/07/28 12:15:05;;;;;;;6.22;2.05;;;23.80;50.30;;;;;;5051163;28;20496;-36
2021/07/28 12:17:31;;;;;;;3.28;2.47;;;24.70;48.20;;;;;;5055325;28;20021;-37
2021/07/28 12:20:13;;;;;;;5.05;2.20;;;24.70;48.70;;;;;;5054963;28;20059;-37
2021/07/28 12:22:43;;;;;;;2.85;2.20;;;24.80;47.50;;;;;;5056664;28;20037;-37
2021/07/28 12:25:18;;;;;;;3.17;2.25;;;24.40;48.70;;;;;;5056393;28;20075;-37
2021/07/28 12:28:12;;;;;;;4.18;2.15;;;24.00;49.50;;;;;;5056726;28;20025;-39
2021/07/28 12:30:40;;;;;;;2.50;1.85;;;23.80;49.90;;;;;;5055051;28;20056;-37
2021/07/28 12:33:13;;;;;;;7.28;1.90;;;24.20;48.00;;;;;;5056806;28;20037;-39
2021/07/28 12:35:41;;;;;;;2.17;1.70;;;24.10;48.70;;;;;;5055856;28;20086;-36
2021/07/28 12:38:10;;;;;;;2.67;1.83;;;24.90;45.80;;;;;;5054958;28;20036;-36
2021/07/28 12:40:38;;;;;;;2.08;1.67;;;24.40;45.20;;;;;;5056146;28;20025;-37
2021/07/28 12:43:06;;;;;;;1.90;1.30;;;24.20;46.20;;;;;;5056008;28;20079;-37